Time;durP1;ratioP1;P1;durP2;ratioP2;P2;SDS_P1;SDS_P2;PMS_P1;PMS_P2;Temp;Humidity;BMP_temperature;BMP_pressure;BME280_temperature;BME280_humidity;BME280_pressure;Samples;Min_cycle;Max_cycle;Signal;HPM_P1;HPM_P2
2024/01/11 00:00:24;;;;;;;25.87;11.03;;;-2.40;99.90;;;;;;5098186;28;20122;-74
2024/01/11 00:02:50;;;;;;;32.17;11.63;;;-2.40;99.90;;;;;;5097620;28;20478;-74
2024/01/11 00:05:15;;;;;;;33.27;12.67;;;-2.40;99.90;;;;;;5098152;28;20413;-74
2024/01/11 00:07:41;;;;;;;28.53;11.67;;;-2.50;99.90;;;;;;5097383;28;20019;-74
2024/01/11 00:10:07;;;;;;;34.03;12.80;;;-2.50;99.90;;;;;;5097527;28;20433;-75
2024/01/11 00:12:32;;;;;;;33.67;12.60;;;-2.50;99.90;;;;;;5115827;28;20092;-74
2024/01/11 00:14:58;;;;;;;36.30;13.33;;;-2.50;99.90;;;;;;5096887;28;20051;-74
2024/01/11 00:17:25;;;;;;;35.50;13.33;;;-2.40;99.90;;;;;;5097705;28;20016;-73
2024/01/11 00:19:50;;;;;;;29.23;12.17;;;-2.40;99.90;;;;;;5115181;28;20046;-74
2024/01/11 00:22:16;;;;;;;31.33;13.07;;;-2.40;99.90;;;;;;5114332;28;20050;-74
2024/01/11 00:24:42;;;;;;;33.90;13.03;;;-2.50;99.90;;;;;;5096762;28;20106;-74
2024/01/11 00:27:07;;;;;;;29.53;12.53;;;-2.40;99.90;;;;;;5097424;28;20028;-74
2024/01/11 00:29:35;;;;;;;34.50;13.67;;;-2.40;99.90;;;;;;5115699;28;20512;-74
2024/01/11 00:32:01;;;;;;;28.80;11.63;;;-2.40;99.90;;;;;;5115208;28;20736;-74
2024/01/11 00:34:26;;;;;;;34.10;13.00;;;-2.40;99.90;;;;;;5097684;28;20024;-73
2024/01/11 00:36:52;;;;;;;32.33;11.73;;;-2.30;99.90;;;;;;5097163;28;20024;-74
2024/01/11 00:39:17;;;;;;;35.07;12.57;;;-2.40;99.90;;;;;;5097438;28;20458;-73
2024/01/11 00:41:43;;;;;;;28.03;12.07;;;-2.40;99.90;;;;;;5114869;28;20039;-74
2024/01/11 00:44:09;;;;;;;32.87;13.23;;;-2.40;99.90;;;;;;5097629;28;20122;-74
2024/01/11 00:46:35;;;;;;;33.50;12.87;;;-2.40;99.90;;;;;;5097486;28;20051;-74
2024/01/11 00:49:00;;;;;;;35.10;13.10;;;-2.40;99.90;;;;;;5115432;28;20054;-74
2024/01/11 00:51:26;;;;;;;32.30;12.70;;;-2.40;99.90;;;;;;5115555;28;20102;-74
2024/01/11 00:53:51;;;;;;;32.30;13.00;;;-2.40;99.90;;;;;;5096762;28;20016;-74
2024/01/11 00:56:21;;;;;;;34.30;13.33;;;-2.40;99.90;;;;;;5097254;28;20031;-74
2024/01/11 00:58:46;;;;;;;32.23;12.57;;;-2.50;99.90;;;;;;5096614;28;20023;-74
2024/01/11 01:01:12;;;;;;;31.73;12.77;;;-2.50;99.90;;;;;;5096933;28;20042;-74
2024/01/11 01:03:38;;;;;;;31.43;12.93;;;-2.50;99.90;;;;;;5115052;28;20028;-73
2024/01/11 01:06:04;;;;;;;31.03;11.27;;;-2.50;99.90;;;;;;5096035;28;20023;-73
2024/01/11 01:08:30;;;;;;;28.57;12.47;;;-2.50;99.90;;;;;;5114905;28;20069;-73
2024/01/11 01:10:56;;;;;;;33.97;12.90;;;-2.50;99.90;;;;;;5114730;28;20402;-74
2024/01/11 01:13:22;;;;;;;32.53;12.87;;;-2.60;99.90;;;;;;5096714;28;20028;-73
2024/01/11 01:15:47;;;;;;;31.00;12.63;;;-2.60;99.90;;;;;;5096368;28;20077;-74
2024/01/11 01:18:13;;;;;;;36.53;14.03;;;-2.60;99.90;;;;;;5114863;28;20028;-74
2024/01/11 01:20:38;;;;;;;30.17;13.60;;;-2.70;99.90;;;;;;5096656;28;20027;-73
2024/01/11 01:23:04;;;;;;;37.27;13.57;;;-2.60;99.90;;;;;;5114073;28;20038;-73
2024/01/11 01:25:30;;;;;;;35.00;13.07;;;-2.60;99.90;;;;;;5096462;28;20072;-74
2024/01/11 01:27:56;;;;;;;36.13;13.07;;;-2.60;99.90;;;;;;5096001;28;20023;-74
2024/01/11 01:30:23;;;;;;;40.33;13.70;;;-2.60;99.90;;;;;;5096457;28;20032;-74
2024/01/11 01:32:49;;;;;;;35.90;12.80;;;-2.60;99.90;;;;;;5095710;28;20491;-74
2024/01/11 01:35:14;;;;;;;31.17;12.90;;;-2.60;99.90;;;;;;5114630;28;20020;-74
2024/01/11 01:37:40;;;;;;;33.40;12.63;;;-2.60;99.90;;;;;;5114746;28;20451;-73
2024/01/11 01:40:07;;;;;;;32.40;12.47;;;-2.70;99.90;;;;;;5113701;28;20019;-74
2024/01/11 01:42:33;;;;;;;34.77;12.40;;;-2.70;99.90;;;;;;5114652;28;20372;-74
2024/01/11 01:44:59;;;;;;;33.13;13.20;;;-2.70;99.90;;;;;;5095814;28;20160;-74
2024/01/11 01:47:25;;;;;;;33.87;12.83;;;-2.70;99.90;;;;;;5096505;28;20129;-73
2024/01/11 01:49:51;;;;;;;31.70;12.67;;;-2.80;99.90;;;;;;5095840;28;20026;-74
2024/01/11 01:52:18;;;;;;;31.43;12.97;;;-2.90;99.90;;;;;;5114463;28;20047;-74
2024/01/11 01:54:44;;;;;;;32.27;13.03;;;-2.80;99.90;;;;;;5114183;28;20024;-77
2024/01/11 01:57:11;;;;;;;34.90;12.47;;;-2.90;99.90;;;;;;5095894;28;20472;-74
2024/01/11 01:59:38;;;;;;;32.23;12.90;;;-2.80;99.90;;;;;;5095950;28;20024;-74
2024/01/11 02:02:05;;;;;;;32.83;13.53;;;-2.90;99.90;;;;;;5095452;28;20046;-74
2024/01/11 02:04:31;;;;;;;37.63;13.63;;;-2.90;99.90;;;;;;5095920;28;20097;-73
2024/01/11 02:06:58;;;;;;;30.90;12.43;;;-2.90;99.90;;;;;;5113677;28;20024;-73
2024/01/11 02:09:24;;;;;;;32.80;12.90;;;-2.90;99.90;;;;;;5113965;28;20023;-74
2024/01/11 02:11:52;;;;;;;35.83;13.03;;;-3.00;99.90;;;;;;5094747;28;20456;-74
2024/01/11 02:14:19;;;;;;;33.73;13.23;;;-3.00;99.90;;;;;;5113860;28;20054;-74
2024/01/11 02:16:45;;;;;;;35.47;12.80;;;-2.90;99.90;;;;;;5095507;28;20027;-77
2024/01/11 02:19:13;;;;;;;33.90;12.47;;;-3.00;99.90;;;;;;5095410;28;20026;-74
2024/01/11 02:21:42;;;;;;;37.07;13.17;;;-3.00;99.90;;;;;;5095604;28;20023;-73
2024/01/11 02:24:08;;;;;;;33.23;12.90;;;-3.00;99.90;;;;;;5113274;28;20024;-74
2024/01/11 02:26:34;;;;;;;32.43;12.50;;;-3.00;99.90;;;;;;5113783;28;20035;-73
2024/01/11 02:29:00;;;;;;;33.50;13.37;;;-3.00;99.90;;;;;;5113185;28;20077;-74
2024/01/11 02:31:26;;;;;;;31.63;12.63;;;-3.00;99.90;;;;;;5095376;28;20023;-74
2024/01/11 02:33:53;;;;;;;33.03;12.60;;;-3.00;99.90;;;;;;5094774;28;20459;-74
2024/01/11 02:36:20;;;;;;;34.20;13.87;;;-2.90;99.90;;;;;;5095129;28;20541;-74
2024/01/11 02:38:46;;;;;;;36.53;13.20;;;-3.00;99.90;;;;;;5094882;28;20019;-79
2024/01/11 02:41:14;;;;;;;36.00;13.73;;;-3.00;99.90;;;;;;5094693;28;20071;-74
2024/01/11 02:43:39;;;;;;;41.33;14.37;;;-3.00;99.90;;;;;;5113157;28;20416;-73
2024/01/11 02:46:05;;;;;;;35.77;13.17;;;-3.10;99.90;;;;;;5094070;28;20062;-73
2024/01/11 02:48:31;;;;;;;38.83;13.23;;;-3.10;99.90;;;;;;5113191;28;20058;-73
2024/01/11 02:50:59;;;;;;;31.37;12.33;;;-3.10;99.90;;;;;;5094729;28;20095;-74
2024/01/11 02:53:25;;;;;;;33.77;12.40;;;-3.10;99.90;;;;;;5113367;28;20039;-73
2024/01/11 02:55:51;;;;;;;34.10;13.20;;;-3.10;99.90;;;;;;5094210;28;20024;-74
2024/01/11 02:58:16;;;;;;;34.53;14.57;;;-3.10;99.90;;;;;;5112776;28;20043;-74
2024/01/11 03:00:42;;;;;;;32.70;13.03;;;-3.10;99.90;;;;;;5094335;28;20015;-73
2024/01/11 03:03:08;;;;;;;33.73;13.43;;;-3.10;99.90;;;;;;5094166;28;20100;-74
2024/01/11 03:05:33;;;;;;;36.73;14.13;;;-3.10;99.90;;;;;;5094845;28;20039;-73
2024/01/11 03:07:59;;;;;;;38.17;14.10;;;-3.10;99.90;;;;;;5094096;28;20061;-74
2024/01/11 03:10:24;;;;;;;36.07;13.13;;;-3.10;99.90;;;;;;5113025;28;20036;-74
2024/01/11 03:12:50;;;;;;;33.03;12.67;;;-3.10;99.90;;;;;;5094121;28;20030;-79
2024/01/11 03:15:16;;;;;;;34.47;13.27;;;-3.20;99.90;;;;;;5094808;28;20402;-74
2024/01/11 03:17:41;;;;;;;37.10;14.43;;;-3.20;99.90;;;;;;5094543;28;20019;-74
2024/01/11 03:20:07;;;;;;;37.83;15.43;;;-3.20;99.90;;;;;;5112253;28;20020;-74
2024/01/11 03:22:33;;;;;;;36.67;13.47;;;-3.20;99.90;;;;;;5094395;28;20122;-74
2024/01/11 03:24:59;;;;;;;35.50;13.27;;;-3.20;99.90;;;;;;5093872;28;20432;-74
2024/01/11 03:27:25;;;;;;;35.00;13.43;;;-3.20;99.90;;;;;;5094598;28;20364;-74
2024/01/11 03:29:50;;;;;;;37.40;12.70;;;-3.20;99.90;;;;;;5112154;28;20015;-78
2024/01/11 03:32:16;;;;;;;37.60;13.17;;;-3.30;99.90;;;;;;5094323;28;20023;-74
2024/01/11 03:34:41;;;;;;;36.07;14.20;;;-3.20;99.90;;;;;;5094722;28;20282;-74
2024/01/11 03:37:07;;;;;;;37.47;12.93;;;-3.30;99.90;;;;;;5112463;28;20070;-73
2024/01/11 03:39:34;;;;;;;34.20;13.37;;;-3.30;99.90;;;;;;5094636;28;20020;-73
2024/01/11 03:41:59;;;;;;;36.13;13.00;;;-3.30;99.90;;;;;;5093595;28;20044;-73
2024/01/11 03:44:25;;;;;;;37.13;13.63;;;-3.30;99.90;;;;;;5094388;28;20039;-74
2024/01/11 03:46:51;;;;;;;39.93;13.50;;;-3.30;99.90;;;;;;5112217;28;20466;-78
2024/01/11 03:49:17;;;;;;;38.10;15.33;;;-3.30;99.90;;;;;;5094335;28;20022;-74
2024/01/11 03:51:43;;;;;;;38.83;13.77;;;-3.30;99.90;;;;;;5112867;28;20106;-73
2024/01/11 03:54:08;;;;;;;29.27;12.17;;;-3.30;99.90;;;;;;5093769;28;20027;-73
2024/01/11 03:56:38;;;;;;;33.77;12.43;;;-3.30;99.90;;;;;;5114022;28;20069;-73
2024/01/11 03:59:05;;;;;;;34.40;13.67;;;-3.40;99.90;;;;;;5097925;28;20030;-74
2024/01/11 04:01:31;;;;;;;32.17;12.90;;;-3.40;99.90;;;;;;5098124;28;20020;-73
2024/01/11 04:03:57;;;;;;;33.90;12.77;;;-3.40;99.90;;;;;;5097218;28;20479;-74
2024/01/11 04:06:24;;;;;;;35.93;12.60;;;-3.40;99.90;;;;;;5098060;28;20019;-74
2024/01/11 04:08:50;;;;;;;32.83;13.90;;;-3.40;99.90;;;;;;5116450;28;20028;-74
2024/01/11 04:11:16;;;;;;;36.50;13.97;;;-3.40;99.90;;;;;;5097745;28;20030;-74
2024/01/11 04:13:42;;;;;;;35.90;13.23;;;-3.40;99.90;;;;;;5116372;28;20027;-74
2024/01/11 04:16:08;;;;;;;35.70;13.90;;;-3.40;99.90;;;;;;5097768;28;20019;-74
2024/01/11 04:18:33;;;;;;;37.90;12.93;;;-3.40;99.90;;;;;;5098102;28;20114;-74
2024/01/11 04:20:59;;;;;;;35.00;14.47;;;-3.40;99.90;;;;;;5097344;28;20024;-74
2024/01/11 04:23:25;;;;;;;37.10;13.33;;;-3.40;99.90;;;;;;5097921;28;20023;-74
2024/01/11 04:25:51;;;;;;;31.97;13.23;;;-3.30;99.90;;;;;;5115835;28;20074;-74
2024/01/11 04:28:17;;;;;;;37.23;13.53;;;-3.30;99.90;;;;;;5115658;28;20020;-74
2024/01/11 04:30:43;;;;;;;37.90;13.30;;;-3.40;99.90;;;;;;5097612;28;20023;-74
2024/01/11 04:33:09;;;;;;;38.67;13.90;;;-3.40;99.90;;;;;;5097166;28;20027;-74
2024/01/11 04:35:34;;;;;;;36.30;13.60;;;-3.40;99.90;;;;;;5116122;28;20404;-73
2024/01/11 04:38:00;;;;;;;36.80;14.40;;;-3.40;99.90;;;;;;5097326;28;20104;-74
2024/01/11 04:40:26;;;;;;;33.80;13.87;;;-3.40;99.90;;;;;;5097235;28;20040;-74
2024/01/11 04:42:51;;;;;;;34.10;13.70;;;-3.40;99.90;;;;;;5115855;28;20049;-74
2024/01/11 04:45:17;;;;;;;33.87;14.27;;;-3.40;99.90;;;;;;5097065;28;20024;-73
2024/01/11 04:47:43;;;;;;;35.57;13.63;;;-3.40;99.90;;;;;;5097527;28;20478;-74
2024/01/11 04:50:08;;;;;;;36.70;12.77;;;-3.40;99.90;;;;;;5096976;28;20376;-74
2024/01/11 04:52:34;;;;;;;34.47;13.03;;;-3.40;99.90;;;;;;5097261;28;20076;-74
2024/01/11 04:55:00;;;;;;;30.63;12.93;;;-3.40;99.90;;;;;;5115123;28;20020;-74
2024/01/11 04:57:25;;;;;;;35.20;11.77;;;-3.40;99.90;;;;;;5097265;28;20051;-73
2024/01/11 04:59:51;;;;;;;33.40;12.67;;;-3.40;99.90;;;;;;5115234;28;20028;-74
2024/01/11 05:02:16;;;;;;;33.07;13.17;;;-3.40;99.90;;;;;;5096566;28;20733;-73
2024/01/11 05:04:42;;;;;;;31.17;12.87;;;-3.40;99.90;;;;;;5115104;28;20039;-74
2024/01/11 05:07:07;;;;;;;34.40;13.17;;;-3.50;99.90;;;;;;5096721;28;20484;-74
2024/01/11 05:09:33;;;;;;;35.40;15.03;;;-3.50;99.90;;;;;;5096433;28;20114;-74
2024/01/11 05:11:58;;;;;;;38.93;14.00;;;-3.50;99.90;;;;;;5096123;28;20061;-74
2024/01/11 05:14:24;;;;;;;43.13;14.37;;;-3.50;99.90;;;;;;5096998;28;20196;-74
2024/01/11 05:16:50;;;;;;;38.50;13.03;;;-3.60;99.90;;;;;;5096948;28;20023;-74
2024/01/11 05:19:15;;;;;;;33.27;12.97;;;-3.60;99.90;;;;;;5096058;28;20656;-74
2024/01/11 05:21:41;;;;;;;35.67;13.57;;;-3.60;99.90;;;;;;5096797;28;20107;-74
2024/01/11 05:24:07;;;;;;;36.33;13.73;;;-3.60;99.90;;;;;;5095763;28;20027;-74
2024/01/11 05:26:32;;;;;;;35.30;13.87;;;-3.60;99.90;;;;;;5114678;28;20031;-74
2024/01/11 05:28:59;;;;;;;36.30;13.67;;;-3.70;99.90;;;;;;5096026;28;20024;-79
2024/01/11 05:31:24;;;;;;;42.67;14.87;;;-3.60;99.90;;;;;;5114646;28;20460;-74
2024/01/11 05:33:50;;;;;;;36.77;12.87;;;-3.60;99.90;;;;;;5096416;28;20065;-74
2024/01/11 05:36:15;;;;;;;39.67;14.33;;;-3.60;99.90;;;;;;5095653;28;20027;-74
2024/01/11 05:38:41;;;;;;;39.43;14.10;;;-3.70;99.90;;;;;;5114756;28;20099;-74
2024/01/11 05:41:07;;;;;;;41.80;13.57;;;-3.70;99.90;;;;;;5113562;28;20040;-74
2024/01/11 05:43:33;;;;;;;35.77;13.93;;;-3.60;99.90;;;;;;5114505;28;20036;-74
2024/01/11 05:45:59;;;;;;;36.27;13.47;;;-3.60;99.90;;;;;;5113796;28;20083;-77
2024/01/11 05:48:24;;;;;;;38.47;14.33;;;-3.70;99.90;;;;;;5113845;28;20460;-74
2024/01/11 05:50:50;;;;;;;42.27;14.10;;;-3.60;99.90;;;;;;5096038;28;20031;-74
2024/01/11 05:53:17;;;;;;;32.77;13.03;;;-3.70;99.90;;;;;;5095694;28;20793;-74
2024/01/11 05:55:42;;;;;;;36.40;13.77;;;-3.70;99.90;;;;;;5096292;28;20068;-74
2024/01/11 05:58:08;;;;;;;35.33;13.70;;;-3.70;99.90;;;;;;5113018;28;20027;-74
2024/01/11 06:00:34;;;;;;;33.90;14.13;;;-3.70;99.90;;;;;;5113738;28;20026;-74
2024/01/11 06:03:00;;;;;;;34.60;13.20;;;-3.70;99.90;;;;;;5095275;28;20027;-80
2024/01/11 06:05:25;;;;;;;38.17;14.83;;;-3.70;99.90;;;;;;5095736;28;20016;-73
2024/01/11 06:07:51;;;;;;;37.43;14.33;;;-3.60;99.90;;;;;;5095778;28;20011;-73
2024/01/11 06:10:17;;;;;;;34.93;13.23;;;-3.60;99.90;;;;;;5095357;28;20036;-74
2024/01/11 06:12:43;;;;;;;39.17;14.90;;;-3.70;99.90;;;;;;5114066;28;20458;-74
2024/01/11 06:15:09;;;;;;;38.50;14.67;;;-3.70;99.90;;;;;;5113396;28;20445;-73
2024/01/11 06:17:35;;;;;;;39.53;15.23;;;-3.70;99.90;;;;;;5095571;28;20543;-74
2024/01/11 06:20:01;;;;;;;38.17;14.27;;;-3.70;99.90;;;;;;5094153;28;20460;-80
2024/01/11 06:22:27;;;;;;;35.77;14.60;;;-3.70;99.90;;;;;;5095378;28;20016;-73
2024/01/11 06:24:53;;;;;;;36.60;14.40;;;-3.70;99.90;;;;;;5095620;28;20031;-74
2024/01/11 06:27:18;;;;;;;35.13;14.07;;;-3.70;99.90;;;;;;5094604;28;20039;-74
2024/01/11 06:29:44;;;;;;;35.67;13.33;;;-3.80;99.90;;;;;;5095128;28;20019;-74
2024/01/11 06:32:09;;;;;;;35.10;14.20;;;-3.80;99.90;;;;;;5094658;28;20027;-74
2024/01/11 06:34:36;;;;;;;39.30;13.83;;;-3.70;99.90;;;;;;5095378;28;20035;-74
2024/01/11 06:37:02;;;;;;;37.73;14.20;;;-3.80;99.90;;;;;;5094945;28;20027;-74
2024/01/11 06:39:29;;;;;;;33.20;12.90;;;-3.80;99.90;;;;;;5095226;28;20016;-74
2024/01/11 06:41:55;;;;;;;31.73;12.50;;;-3.70;99.90;;;;;;5095210;28;20399;-73
2024/01/11 06:44:21;;;;;;;37.47;13.60;;;-3.70;99.90;;;;;;5094718;28;20118;-74
2024/01/11 06:46:46;;;;;;;37.63;13.70;;;-3.70;99.90;;;;;;5095084;28;20448;-73
2024/01/11 06:49:12;;;;;;;34.57;13.87;;;-3.70;99.90;;;;;;5094706;28;20026;-74
2024/01/11 06:51:39;;;;;;;33.47;13.50;;;-3.70;99.90;;;;;;5113371;28;20023;-74
2024/01/11 06:54:04;;;;;;;33.67;13.77;;;-3.80;99.90;;;;;;5094634;28;20024;-74
2024/01/11 06:56:30;;;;;;;31.87;13.77;;;-3.80;99.90;;;;;;5094413;28;20030;-74
2024/01/11 06:58:56;;;;;;;34.30;14.00;;;-3.70;99.90;;;;;;5112585;28;20024;-74
2024/01/11 07:01:21;;;;;;;42.00;14.70;;;-3.80;99.90;;;;;;5113098;28;20364;-74
2024/01/11 07:03:49;;;;;;;37.10;14.23;;;-3.80;99.90;;;;;;5112685;28;20027;-74
2024/01/11 07:06:15;;;;;;;34.27;13.20;;;-3.70;99.90;;;;;;5094464;28;20020;-73
2024/01/11 07:08:40;;;;;;;31.17;13.57;;;-3.70;99.90;;;;;;5094211;28;20403;-74
2024/01/11 07:11:07;;;;;;;34.90;14.03;;;-3.80;99.90;;;;;;5112129;28;20077;-75
2024/01/11 07:13:33;;;;;;;32.90;12.73;;;-3.80;99.90;;;;;;5094691;28;20042;-74
2024/01/11 07:15:59;;;;;;;32.00;12.63;;;-3.80;99.90;;;;;;5094702;28;20057;-75
2024/01/11 07:18:25;;;;;;;39.60;14.57;;;-3.80;99.90;;;;;;5094330;28;20051;-74
2024/01/11 07:20:52;;;;;;;38.93;15.53;;;-3.80;99.90;;;;;;5112916;28;20360;-74
2024/01/11 07:23:18;;;;;;;39.93;14.13;;;-3.80;99.90;;;;;;5112643;28;20100;-75
2024/01/11 07:25:43;;;;;;;37.27;14.13;;;-3.80;99.90;;;;;;5095159;28;20531;-75
2024/01/11 07:28:09;;;;;;;41.43;14.73;;;-3.80;99.90;;;;;;5094377;28;20023;-74
2024/01/11 07:30:35;;;;;;;42.83;14.70;;;-3.80;99.90;;;;;;5113336;28;20031;-75
2024/01/11 07:33:01;;;;;;;44.90;15.87;;;-3.80;99.90;;;;;;5098450;28;20027;-74
2024/01/11 07:35:26;;;;;;;42.27;16.20;;;-3.80;99.90;;;;;;5098183;28;20429;-75
2024/01/11 07:37:52;;;;;;;48.50;16.50;;;-3.80;99.90;;;;;;5117113;28;20022;-74
2024/01/11 07:40:17;;;;;;;37.97;15.07;;;-3.70;99.90;;;;;;5116165;28;20031;-75
2024/01/11 07:42:43;;;;;;;38.57;16.27;;;-3.70;99.90;;;;;;5116864;28;20042;-74
2024/01/11 07:45:13;;;;;;;46.43;17.27;;;-3.80;99.90;;;;;;5098151;28;20029;-75
2024/01/11 07:47:39;;;;;;;46.23;15.87;;;-3.70;99.90;;;;;;5098792;28;20114;-75
2024/01/11 07:50:06;;;;;;;39.43;14.20;;;-3.70;99.90;;;;;;5116298;28;20051;-75
2024/01/11 07:52:32;;;;;;;35.50;14.60;;;-3.70;99.90;;;;;;5116733;28;20102;-75
2024/01/11 07:55:06;;;;;;;47.20;15.70;;;-3.70;99.90;;;;;;5098358;28;20024;-75
2024/01/11 07:57:34;;;;;;;40.00;15.57;;;-3.70;99.90;;;;;;5098870;28;20023;-74
2024/01/11 08:00:00;;;;;;;39.10;15.43;;;-3.70;99.90;;;;;;5097827;28;20016;-75
2024/01/11 08:02:26;;;;;;;40.67;15.40;;;-3.70;99.90;;;;;;5097834;28;20019;-75
2024/01/11 08:04:52;;;;;;;40.93;16.20;;;-3.70;99.90;;;;;;5116544;28;20056;-74
2024/01/11 08:07:17;;;;;;;39.00;16.40;;;-3.70;99.90;;;;;;5097592;28;20028;-75
2024/01/11 08:09:45;;;;;;;38.73;15.13;;;-3.70;99.90;;;;;;5116432;28;20471;-75
2024/01/11 08:12:14;;;;;;;41.03;16.37;;;-3.70;99.90;;;;;;5116170;28;20019;-74
2024/01/11 08:14:41;;;;;;;39.37;15.20;;;-3.70;99.90;;;;;;5098160;28;20027;-74
2024/01/11 08:17:08;;;;;;;34.70;14.97;;;-3.70;99.90;;;;;;5115875;28;20011;-75
2024/01/11 08:19:34;;;;;;;40.17;14.73;;;-3.70;99.90;;;;;;5098031;28;20080;-75
2024/01/11 08:21:59;;;;;;;40.23;15.60;;;-3.70;99.90;;;;;;5116203;28;20023;-74
2024/01/11 08:24:25;;;;;;;37.97;15.23;;;-3.60;99.90;;;;;;5115662;28;20382;-75
2024/01/11 08:26:51;;;;;;;35.00;14.53;;;-3.60;99.90;;;;;;5116046;28;20026;-74
2024/01/11 08:29:19;;;;;;;43.80;16.40;;;-3.60;99.90;;;;;;5115299;28;20023;-75
2024/01/11 08:31:45;;;;;;;43.67;16.37;;;-3.50;99.90;;;;;;5097902;28;20022;-74
2024/01/11 08:34:11;;;;;;;42.07;15.60;;;-3.60;99.90;;;;;;5097315;28;20446;-74
2024/01/11 08:36:38;;;;;;;40.37;15.10;;;-3.50;99.90;;;;;;5097627;28;20475;-75
2024/01/11 08:39:05;;;;;;;39.30;14.97;;;-3.50;99.90;;;;;;5097497;28;20043;-74
2024/01/11 08:41:32;;;;;;;45.67;15.87;;;-3.50;99.90;;;;;;5097071;28;20092;-75
2024/01/11 08:43:58;;;;;;;37.90;13.97;;;-3.40;99.90;;;;;;5114790;28;20031;-75
2024/01/11 08:46:25;;;;;;;48.57;15.93;;;-3.40;99.90;;;;;;5096999;28;20023;-75
2024/01/11 08:48:51;;;;;;;45.83;15.53;;;-3.40;99.90;;;;;;5097596;28;20102;-75
2024/01/11 08:51:17;;;;;;;44.20;14.70;;;-3.40;99.90;;;;;;5115243;28;20445;-75
2024/01/11 08:53:42;;;;;;;37.07;15.83;;;-3.40;99.90;;;;;;5097423;28;20048;-74
2024/01/11 08:56:08;;;;;;;39.53;14.57;;;-3.30;99.90;;;;;;5096577;28;20030;-75
2024/01/11 08:58:34;;;;;;;40.07;16.40;;;-3.30;99.90;;;;;;5115468;28;20016;-75
2024/01/11 09:00:59;;;;;;;45.93;16.10;;;-3.20;99.90;;;;;;5097352;28;20026;-75
2024/01/11 09:03:25;;;;;;;41.27;15.73;;;-3.20;99.90;;;;;;5114914;28;20071;-74
2024/01/11 09:05:50;;;;;;;44.90;15.50;;;-3.20;99.90;;;;;;5097133;28;20020;-75
2024/01/11 09:08:16;;;;;;;36.17;16.07;;;-3.20;99.90;;;;;;5096357;28;20080;-75
2024/01/11 09:10:41;;;;;;;40.97;15.87;;;-3.10;99.90;;;;;;5114855;28;20028;-75
2024/01/11 09:13:07;;;;;;;36.17;15.03;;;-3.10;99.90;;;;;;5097014;28;20448;-74
2024/01/11 09:15:33;;;;;;;37.77;15.60;;;-3.10;99.90;;;;;;5114995;28;20098;-75
2024/01/11 09:18:02;;;;;;;41.53;15.77;;;-3.00;99.90;;;;;;5096902;28;20110;-75
2024/01/11 09:20:28;;;;;;;39.00;14.70;;;-3.00;99.90;;;;;;5096422;28;20592;-74
2024/01/11 09:22:54;;;;;;;45.63;15.47;;;-2.90;99.90;;;;;;5096868;28;20036;-75
2024/01/11 09:25:19;;;;;;;40.73;15.97;;;-2.90;99.90;;;;;;5096348;28;20068;-75
2024/01/11 09:27:45;;;;;;;34.97;14.20;;;-2.90;99.90;;;;;;5096412;28;20371;-75
2024/01/11 09:30:10;;;;;;;37.60;14.37;;;-2.80;99.90;;;;;;5096240;28;20034;-75
2024/01/11 09:32:36;;;;;;;38.80;14.90;;;-2.80;99.90;;;;;;5096886;28;20023;-74
2024/01/11 09:35:04;;;;;;;39.43;14.87;;;-2.80;99.90;;;;;;5096683;28;20023;-75
2024/01/11 09:37:30;;;;;;;38.97;15.43;;;-2.70;99.90;;;;;;5114339;28;20020;-74
2024/01/11 09:39:56;;;;;;;36.57;15.00;;;-2.70;99.90;;;;;;5096419;28;20405;-75
2024/01/11 09:42:22;;;;;;;41.03;16.77;;;-2.70;99.90;;;;;;5095469;28;20156;-75
2024/01/11 09:44:47;;;;;;;34.87;15.50;;;-2.60;99.90;;;;;;5114556;28;20050;-75
2024/01/11 09:47:17;;;;;;;34.33;14.60;;;-2.60;99.90;;;;;;5114040;28;20439;-75
2024/01/11 09:49:44;;;;;;;40.87;15.90;;;-2.60;99.90;;;;;;5096242;28;20047;-75
2024/01/11 09:52:13;;;;;;;32.80;13.67;;;-2.50;99.90;;;;;;5114343;28;20026;-83
2024/01/11 09:54:40;;;;;;;37.07;14.53;;;-2.50;99.90;;;;;;5096096;28;20027;-75
2024/01/11 09:57:08;;;;;;;35.27;14.53;;;-2.40;99.90;;;;;;5114401;28;20020;-74
2024/01/11 09:59:35;;;;;;;44.63;15.93;;;-2.30;99.90;;;;;;5095476;28;20027;-75
2024/01/11 10:02:02;;;;;;;32.67;13.93;;;-2.30;99.90;;;;;;5114230;28;20022;-74
2024/01/11 10:04:28;;;;;;;35.10;14.40;;;-2.30;99.90;;;;;;5095191;28;20032;-75
2024/01/11 10:06:56;;;;;;;37.57;14.33;;;-2.30;99.90;;;;;;5114233;28;20028;-75
2024/01/11 10:09:22;;;;;;;33.57;13.77;;;-2.20;99.90;;;;;;5113617;28;20023;-75
2024/01/11 10:11:50;;;;;;;39.93;15.87;;;-2.20;99.90;;;;;;5114340;28;20027;-74
2024/01/11 10:14:16;;;;;;;38.13;13.93;;;-2.20;99.90;;;;;;5095422;28;20063;-75
2024/01/11 10:16:43;;;;;;;36.83;14.17;;;-2.10;99.90;;;;;;5095837;28;20043;-75
2024/01/11 10:19:10;;;;;;;35.37;14.40;;;-2.20;99.90;;;;;;5113982;28;20082;-74
2024/01/11 10:21:39;;;;;;;37.70;14.10;;;-2.10;99.90;;;;;;5095262;28;20122;-74
2024/01/11 10:24:05;;;;;;;33.73;13.90;;;-2.00;99.90;;;;;;5095520;28;20034;-74
2024/01/11 10:26:32;;;;;;;33.43;14.70;;;-1.90;99.90;;;;;;5095058;28;20348;-75
2024/01/11 10:28:59;;;;;;;34.03;14.20;;;-1.80;99.90;;;;;;5113936;28;20072;-75
2024/01/11 10:31:28;;;;;;;41.60;14.93;;;-1.80;99.90;;;;;;5094774;28;20023;-75
2024/01/11 10:33:54;;;;;;;32.67;14.43;;;-1.70;99.90;;;;;;5095479;28;20027;-74
2024/01/11 10:36:20;;;;;;;35.00;14.37;;;-1.70;99.90;;;;;;5095013;28;20019;-75
2024/01/11 10:38:47;;;;;;;34.13;14.50;;;-1.60;99.90;;;;;;5113577;28;20023;-74
2024/01/11 10:41:17;;;;;;;36.80;13.97;;;-1.60;99.90;;;;;;5095074;28;20066;-74
2024/01/11 10:43:44;;;;;;;36.50;14.17;;;-1.50;99.90;;;;;;5113536;28;20028;-74
2024/01/11 10:46:12;;;;;;;37.53;14.33;;;-1.50;99.90;;;;;;5095295;28;20029;-75
2024/01/11 10:48:41;;;;;;;35.27;14.53;;;-1.40;99.90;;;;;;5094418;28;20024;-74
2024/01/11 10:51:14;;;;;;;37.53;15.43;;;-1.40;99.90;;;;;;5113464;28;20021;-75
2024/01/11 10:53:47;;;;;;;35.43;13.57;;;-1.40;99.90;;;;;;5095274;28;20020;-75
2024/01/11 10:56:15;;;;;;;33.53;12.67;;;-1.30;99.90;;;;;;5095218;28;20482;-74
2024/01/11 10:58:41;;;;;;;38.20;14.33;;;-1.20;99.90;;;;;;5095012;28;20402;-75
2024/01/11 11:01:11;;;;;;;37.30;14.27;;;-1.20;99.90;;;;;;5113348;28;20024;-74
2024/01/11 11:03:38;;;;;;;34.37;13.70;;;-1.10;99.90;;;;;;5094625;28;20034;-74
2024/01/11 11:06:08;;;;;;;37.03;14.33;;;-1.10;99.90;;;;;;5094612;28;20360;-74
2024/01/11 11:08:34;;;;;;;34.60;13.80;;;-1.10;99.90;;;;;;5094537;28;20483;-74
2024/01/11 11:11:05;;;;;;;36.13;14.33;;;-1.10;99.90;;;;;;5095276;28;20108;-74
2024/01/11 11:13:31;;;;;;;35.43;12.73;;;-1.00;99.90;;;;;;5094626;28;20038;-75
2024/01/11 11:15:57;;;;;;;35.53;12.90;;;-1.00;99.90;;;;;;5113245;28;20058;-74
2024/01/11 11:18:24;;;;;;;30.43;13.60;;;-0.90;99.90;;;;;;5094537;28;20016;-75
2024/01/11 11:20:50;;;;;;;37.03;14.37;;;-0.90;99.90;;;;;;5113195;28;20043;-74
2024/01/11 11:23:17;;;;;;;34.10;14.20;;;-0.80;99.90;;;;;;5112675;28;20107;-86
2024/01/11 11:25:46;;;;;;;36.60;14.57;;;-0.80;99.90;;;;;;5113208;28;20016;-74
2024/01/11 11:28:13;;;;;;;41.13;14.57;;;-0.80;99.90;;;;;;5094884;28;20020;-74
2024/01/11 11:30:41;;;;;;;36.03;13.63;;;-0.80;99.90;;;;;;5094471;28;20104;-75
2024/01/11 11:33:22;;;;;;;35.93;15.43;;;-0.70;99.90;;;;;;5094788;28;20023;-74
2024/01/11 11:35:51;;;;;;;35.07;14.80;;;-0.70;99.90;;;;;;5094776;28;20019;-74
2024/01/11 11:38:18;;;;;;;34.67;14.47;;;-0.60;99.90;;;;;;5094313;28;20024;-83
2024/01/11 11:40:47;;;;;;;30.87;14.20;;;-0.60;99.90;;;;;;5094376;28;20128;-75
2024/01/11 11:43:13;;;;;;;32.73;13.37;;;-0.60;99.90;;;;;;5094641;28;20476;-74
2024/01/11 11:45:41;;;;;;;37.03;14.63;;;-0.60;99.90;;;;;;5094110;28;20020;-74
2024/01/11 11:48:28;;;;;;;30.53;13.73;;;-0.50;99.90;;;;;;5094779;28;20026;-74
2024/01/11 11:51:09;;;;;;;31.90;13.33;;;-0.40;99.90;;;;;;5113167;28;20019;-74
2024/01/11 11:53:40;;;;;;;38.60;14.13;;;-0.40;99.90;;;;;;5094252;28;20420;-75
2024/01/11 11:56:06;;;;;;;33.53;13.10;;;-0.40;99.90;;;;;;5106633;28;20030;-74
2024/01/11 11:58:34;;;;;;;36.70;14.00;;;-0.30;99.90;;;;;;5094132;28;20111;-75
2024/01/11 12:01:01;;;;;;;38.23;13.83;;;-0.20;99.90;;;;;;5094599;28;20024;-74
2024/01/11 12:03:31;;;;;;;37.53;14.33;;;-0.20;99.90;;;;;;5093951;28;20028;-75
2024/01/11 12:05:58;;;;;;;32.87;14.40;;;-0.10;99.90;;;;;;5094512;28;20069;-74
2024/01/11 12:08:24;;;;;;;32.87;13.70;;;0.00;99.90;;;;;;5094077;28;20052;-75
2024/01/11 12:10:51;;;;;;;31.90;13.60;;;0.00;99.90;;;;;;5094575;28;20051;-75
2024/01/11 12:13:18;;;;;;;35.47;13.97;;;0.10;99.90;;;;;;5094396;28;20031;-74
2024/01/11 12:15:44;;;;;;;32.67;12.83;;;0.30;99.90;;;;;;5112781;28;20498;-75
2024/01/11 12:18:10;;;;;;;35.30;13.93;;;0.50;99.90;;;;;;5094756;28;20023;-74
2024/01/11 12:20:35;;;;;;;31.77;14.03;;;0.60;99.90;;;;;;5097546;28;20024;-75
2024/01/11 12:23:04;;;;;;;36.17;14.87;;;0.80;99.90;;;;;;5097925;28;20097;-74